sensor_id;sensor_type;location;lat;lon;timestamp;P1;durP1;ratioP1;P2;durP2;ratioP2
31091;SDS011;67728;53.122;12.776;2024-01-30T00:00:28;510.03;;;86.60;;
31091;SDS011;67728;53.122;12.776;2024-01-30T00:01:58;510.17;;;88.20;;
31091;SDS011;67728;53.122;12.776;2024-01-30T00:03:31;510.03;;;88.00;;
31091;SDS011;67728;53.122;12.776;2024-01-30T00:05:02;512.17;;;89.40;;
31091;SDS011;67728;53.122;12.776;2024-01-30T00:06:34;510.60;;;86.63;;
31091;SDS011;67728;53.122;12.776;2024-01-30T00:08:06;510.83;;;86.57;;
31091;SDS011;67728;53.122;12.776;2024-01-30T00:09:38;510.60;;;87.82;;
31091;SDS011;67728;53.122;12.776;2024-01-30T00:11:09;507.07;;;83.30;;
31091;SDS011;67728;53.122;12.776;2024-01-30T00:12:41;511.63;;;89.77;;
31091;SDS011;67728;53.122;12.776;2024-01-30T00:14:11;510.73;;;90.07;;
31091;SDS011;67728;53.122;12.776;2024-01-30T00:15:44;516.80;;;90.13;;
31091;SDS011;67728;53.122;12.776;2024-01-30T00:17:14;510.37;;;88.13;;
31091;SDS011;67728;53.122;12.776;2024-01-30T00:18:47;512.20;;;86.67;;
31091;SDS011;67728;53.122;12.776;2024-01-30T00:20:18;516.50;;;90.83;;
31091;SDS011;67728;53.122;12.776;2024-01-30T00:21:50;507.20;;;86.83;;
31091;SDS011;67728;53.122;12.776;2024-01-30T00:23:20;512.97;;;86.97;;
31091;SDS011;67728;53.122;12.776;2024-01-30T00:24:52;509.70;;;88.70;;
31091;SDS011;67728;53.122;12.776;2024-01-30T00:26:22;511.73;;;87.93;;
31091;SDS011;67728;53.122;12.776;2024-01-30T00:27:54;509.57;;;88.13;;
31091;SDS011;67728;53.122;12.776;2024-01-30T00:29:25;510.50;;;89.23;;
31091;SDS011;67728;53.122;12.776;2024-01-30T00:31:00;509.17;;;86.33;;
31091;SDS011;67728;53.122;12.776;2024-01-30T00:32:31;507.03;;;86.87;;
31091;SDS011;67728;53.122;12.776;2024-01-30T00:34:04;510.53;;;87.30;;
31091;SDS011;67728;53.122;12.776;2024-01-30T00:35:34;510.07;;;87.77;;
31091;SDS011;67728;53.122;12.776;2024-01-30T00:37:06;507.90;;;85.90;;
31091;SDS011;67728;53.122;12.776;2024-01-30T00:38:37;507.00;;;84.23;;
31091;SDS011;67728;53.122;12.776;2024-01-30T00:40:09;516.73;;;84.97;;
31091;SDS011;67728;53.122;12.776;2024-01-30T00:41:45;506.90;;;86.90;;
31091;SDS011;67728;53.122;12.776;2024-01-30T00:43:17;509.90;;;87.03;;
31091;SDS011;67728;53.122;12.776;2024-01-30T00:44:47;508.07;;;88.53;;
31091;SDS011;67728;53.122;12.776;2024-01-30T00:46:19;511.07;;;87.30;;
31091;SDS011;67728;53.122;12.776;2024-01-30T00:47:50;508.03;;;86.03;;
31091;SDS011;67728;53.122;12.776;2024-01-30T00:49:22;507.73;;;87.97;;
31091;SDS011;67728;53.122;12.776;2024-01-30T00:50:53;512.67;;;88.93;;
31091;SDS011;67728;53.122;12.776;2024-01-30T00:52:25;512.60;;;88.13;;
31091;SDS011;67728;53.122;12.776;2024-01-30T00:53:55;506.80;;;85.90;;
31091;SDS011;67728;53.122;12.776;2024-01-30T00:55:27;508.47;;;87.67;;
31091;SDS011;67728;53.122;12.776;2024-01-30T00:56:57;508.27;;;88.50;;
31091;SDS011;67728;53.122;12.776;2024-01-30T00:58:29;507.70;;;88.67;;
31091;SDS011;67728;53.122;12.776;2024-01-30T01:00:00;508.70;;;86.40;;
31091;SDS011;67728;53.122;12.776;2024-01-30T01:01:31;509.23;;;91.00;;
31091;SDS011;67728;53.122;12.776;2024-01-30T01:03:02;507.97;;;86.60;;
31091;SDS011;67728;53.122;12.776;2024-01-30T01:04:35;507.73;;;85.50;;
31091;SDS011;67728;53.122;12.776;2024-01-30T01:06:06;508.73;;;89.17;;
31091;SDS011;67728;53.122;12.776;2024-01-30T01:07:38;510.47;;;92.43;;
31091;SDS011;67728;53.122;12.776;2024-01-30T01:09:10;507.93;;;89.80;;
31091;SDS011;67728;53.122;12.776;2024-01-30T01:10:42;507.07;;;91.20;;
31091;SDS011;67728;53.122;12.776;2024-01-30T01:12:12;509.53;;;89.27;;
31091;SDS011;67728;53.122;12.776;2024-01-30T01:13:44;509.40;;;90.63;;
31091;SDS011;67728;53.122;12.776;2024-01-30T01:15:15;509.83;;;92.80;;
31091;SDS011;67728;53.122;12.776;2024-01-30T01:16:46;508.70;;;90.40;;
31091;SDS011;67728;53.122;12.776;2024-01-30T01:18:18;507.73;;;89.77;;
31091;SDS011;67728;53.122;12.776;2024-01-30T01:19:50;506.33;;;87.13;;
31091;SDS011;67728;53.122;12.776;2024-01-30T01:21:22;508.27;;;89.77;;
31091;SDS011;67728;53.122;12.776;2024-01-30T01:22:53;508.33;;;90.97;;
31091;SDS011;67728;53.122;12.776;2024-01-30T01:24:24;509.43;;;90.57;;
31091;SDS011;67728;53.122;12.776;2024-01-30T01:25:55;512.03;;;89.47;;
31091;SDS011;67728;53.122;12.776;2024-01-30T01:27:27;506.80;;;92.05;;
31091;SDS011;67728;53.122;12.776;2024-01-30T01:28:57;508.50;;;89.47;;
31091;SDS011;67728;53.122;12.776;2024-01-30T01:30:29;508.90;;;88.63;;
31091;SDS011;67728;53.122;12.776;2024-01-30T01:32:00;508.23;;;87.20;;
31091;SDS011;67728;53.122;12.776;2024-01-30T01:33:32;509.87;;;89.97;;
31091;SDS011;67728;53.122;12.776;2024-01-30T01:35:04;507.07;;;86.03;;
31091;SDS011;67728;53.122;12.776;2024-01-30T01:36:36;510.13;;;89.43;;
31091;SDS011;67728;53.122;12.776;2024-01-30T01:38:07;508.90;;;87.43;;
31091;SDS011;67728;53.122;12.776;2024-01-30T01:39:38;506.23;;;85.70;;
31091;SDS011;67728;53.122;12.776;2024-01-30T01:41:09;509.07;;;83.33;;
31091;SDS011;67728;53.122;12.776;2024-01-30T01:42:41;507.37;;;85.43;;
31091;SDS011;67728;53.122;12.776;2024-01-30T01:44:11;508.13;;;83.37;;
31091;SDS011;67728;53.122;12.776;2024-01-30T01:45:43;508.93;;;86.93;;
31091;SDS011;67728;53.122;12.776;2024-01-30T01:47:13;505.93;;;85.57;;
31091;SDS011;67728;53.122;12.776;2024-01-30T01:48:46;506.97;;;86.27;;
31091;SDS011;67728;53.122;12.776;2024-01-30T01:50:18;514.03;;;84.73;;
31091;SDS011;67728;53.122;12.776;2024-01-30T01:51:51;506.40;;;85.77;;
31091;SDS011;67728;53.122;12.776;2024-01-30T01:53:26;508.77;;;86.70;;
31091;SDS011;67728;53.122;12.776;2024-01-30T01:54:58;508.03;;;86.07;;
31091;SDS011;67728;53.122;12.776;2024-01-30T01:56:29;508.37;;;84.90;;
31091;SDS011;67728;53.122;12.776;2024-01-30T01:58:02;504.43;;;83.00;;
31091;SDS011;67728;53.122;12.776;2024-01-30T01:59:33;507.97;;;86.80;;
31091;SDS011;67728;53.122;12.776;2024-01-30T02:01:04;511.23;;;84.37;;
31091;SDS011;67728;53.122;12.776;2024-01-30T02:02:35;506.20;;;85.00;;
31091;SDS011;67728;53.122;12.776;2024-01-30T02:04:08;506.73;;;84.20;;
31091;SDS011;67728;53.122;12.776;2024-01-30T02:05:40;506.13;;;85.60;;
31091;SDS011;67728;53.122;12.776;2024-01-30T02:07:13;506.40;;;84.17;;
31091;SDS011;67728;53.122;12.776;2024-01-30T02:08:43;504.03;;;82.93;;
31091;SDS011;67728;53.122;12.776;2024-01-30T02:10:15;510.50;;;81.00;;
31091;SDS011;67728;53.122;12.776;2024-01-30T02:11:46;508.23;;;86.77;;
31091;SDS011;67728;53.122;12.776;2024-01-30T02:13:17;506.77;;;84.77;;
31091;SDS011;67728;53.122;12.776;2024-01-30T02:14:48;505.80;;;84.20;;
31091;SDS011;67728;53.122;12.776;2024-01-30T02:16:21;511.60;;;82.73;;
31091;SDS011;67728;53.122;12.776;2024-01-30T02:17:52;504.13;;;82.03;;
31091;SDS011;67728;53.122;12.776;2024-01-30T02:19:23;507.17;;;85.87;;
31091;SDS011;67728;53.122;12.776;2024-01-30T02:20:56;507.07;;;83.63;;
31091;SDS011;67728;53.122;12.776;2024-01-30T02:22:33;505.33;;;83.37;;
31091;SDS011;67728;53.122;12.776;2024-01-30T02:24:04;503.80;;;82.67;;
31091;SDS011;67728;53.122;12.776;2024-01-30T02:25:37;504.90;;;84.70;;
31091;SDS011;67728;53.122;12.776;2024-01-30T02:27:14;505.47;;;82.87;;
31091;SDS011;67728;53.122;12.776;2024-01-30T02:28:44;507.03;;;84.30;;
31091;SDS011;67728;53.122;12.776;2024-01-30T02:30:16;510.97;;;83.33;;
31091;SDS011;67728;53.122;12.776;2024-01-30T02:31:47;503.53;;;83.80;;
31091;SDS011;67728;53.122;12.776;2024-01-30T02:33:18;503.00;;;83.47;;
31091;SDS011;67728;53.122;12.776;2024-01-30T02:34:49;503.87;;;81.23;;
31091;SDS011;67728;53.122;12.776;2024-01-30T02:36:20;518.50;;;82.13;;
31091;SDS011;67728;53.122;12.776;2024-01-30T02:37:52;506.20;;;83.67;;
31091;SDS011;67728;53.122;12.776;2024-01-30T02:39:24;506.37;;;83.20;;
31091;SDS011;67728;53.122;12.776;2024-01-30T02:40:55;512.23;;;84.60;;
31091;SDS011;67728;53.122;12.776;2024-01-30T02:42:27;506.27;;;83.43;;
31091;SDS011;67728;53.122;12.776;2024-01-30T02:43:57;503.37;;;82.30;;
31091;SDS011;67728;53.122;12.776;2024-01-30T02:45:29;504.53;;;80.90;;
31091;SDS011;67728;53.122;12.776;2024-01-30T02:46:59;504.77;;;81.97;;
31091;SDS011;67728;53.122;12.776;2024-01-30T02:48:31;506.67;;;86.53;;
31091;SDS011;67728;53.122;12.776;2024-01-30T02:50:02;505.70;;;84.03;;
31091;SDS011;67728;53.122;12.776;2024-01-30T02:51:33;507.13;;;84.10;;
31091;SDS011;67728;53.122;12.776;2024-01-30T02:53:05;504.53;;;84.33;;
31091;SDS011;67728;53.122;12.776;2024-01-30T02:54:37;504.93;;;85.87;;
31091;SDS011;67728;53.122;12.776;2024-01-30T02:56:07;503.93;;;82.73;;
31091;SDS011;67728;53.122;12.776;2024-01-30T02:57:40;503.87;;;81.97;;
31091;SDS011;67728;53.122;12.776;2024-01-30T02:59:10;504.73;;;84.90;;
31091;SDS011;67728;53.122;12.776;2024-01-30T03:00:42;504.03;;;84.37;;
31091;SDS011;67728;53.122;12.776;2024-01-30T03:02:13;505.53;;;83.10;;
31091;SDS011;67728;53.122;12.776;2024-01-30T03:03:44;504.23;;;83.83;;
31091;SDS011;67728;53.122;12.776;2024-01-30T03:05:16;505.90;;;85.10;;
31091;SDS011;67728;53.122;12.776;2024-01-30T03:06:46;504.37;;;83.83;;
31091;SDS011;67728;53.122;12.776;2024-01-30T03:08:19;505.93;;;84.67;;
31091;SDS011;67728;53.122;12.776;2024-01-30T03:09:51;505.93;;;84.23;;
31091;SDS011;67728;53.122;12.776;2024-01-30T03:11:22;507.17;;;83.47;;
31091;SDS011;67728;53.122;12.776;2024-01-30T03:12:53;505.80;;;83.77;;
31091;SDS011;67728;53.122;12.776;2024-01-30T03:14:24;506.40;;;84.40;;
31091;SDS011;67728;53.122;12.776;2024-01-30T03:15:55;504.50;;;82.57;;
31091;SDS011;67728;53.122;12.776;2024-01-30T03:17:27;505.67;;;82.80;;
31091;SDS011;67728;53.122;12.776;2024-01-30T03:18:57;506.77;;;84.83;;
31091;SDS011;67728;53.122;12.776;2024-01-30T03:20:31;504.87;;;83.93;;
31091;SDS011;67728;53.122;12.776;2024-01-30T03:22:01;504.90;;;82.77;;
31091;SDS011;67728;53.122;12.776;2024-01-30T03:23:35;505.40;;;84.07;;
31091;SDS011;67728;53.122;12.776;2024-01-30T03:25:05;503.63;;;84.90;;
31091;SDS011;67728;53.122;12.776;2024-01-30T03:26:38;510.03;;;83.17;;
31091;SDS011;67728;53.122;12.776;2024-01-30T03:28:08;504.53;;;85.03;;
31091;SDS011;67728;53.122;12.776;2024-01-30T03:29:40;505.07;;;83.53;;
31091;SDS011;67728;53.122;12.776;2024-01-30T03:31:12;504.00;;;81.47;;
31091;SDS011;67728;53.122;12.776;2024-01-30T03:32:45;513.13;;;82.20;;
31091;SDS011;67728;53.122;12.776;2024-01-30T03:34:15;504.43;;;81.87;;
31091;SDS011;67728;53.122;12.776;2024-01-30T03:35:47;503.50;;;84.13;;
31091;SDS011;67728;53.122;12.776;2024-01-30T03:37:17;513.90;;;84.13;;
31091;SDS011;67728;53.122;12.776;2024-01-30T03:38:50;503.97;;;83.87;;
31091;SDS011;67728;53.122;12.776;2024-01-30T03:40:21;517.77;;;85.53;;
31091;SDS011;67728;53.122;12.776;2024-01-30T03:41:52;505.83;;;85.13;;
31091;SDS011;67728;53.122;12.776;2024-01-30T03:43:23;506.93;;;84.30;;
31091;SDS011;67728;53.122;12.776;2024-01-30T03:44:55;504.43;;;83.97;;
31091;SDS011;67728;53.122;12.776;2024-01-30T03:46:27;507.67;;;83.87;;
31091;SDS011;67728;53.122;12.776;2024-01-30T03:47:59;505.43;;;83.33;;
31091;SDS011;67728;53.122;12.776;2024-01-30T03:49:29;505.27;;;84.27;;
31091;SDS011;67728;53.122;12.776;2024-01-30T03:51:01;505.23;;;83.37;;
31091;SDS011;67728;53.122;12.776;2024-01-30T03:52:32;507.63;;;84.83;;
31091;SDS011;67728;53.122;12.776;2024-01-30T03:54:05;505.43;;;85.77;;
31091;SDS011;67728;53.122;12.776;2024-01-30T03:55:35;506.83;;;86.40;;
31091;SDS011;67728;53.122;12.776;2024-01-30T03:57:07;503.33;;;82.10;;
31091;SDS011;67728;53.122;12.776;2024-01-30T03:58:37;506.13;;;84.33;;
31091;SDS011;67728;53.122;12.776;2024-01-30T04:00:09;513.83;;;84.73;;
31091;SDS011;67728;53.122;12.776;2024-01-30T04:01:41;508.07;;;84.73;;
31091;SDS011;67728;53.122;12.776;2024-01-30T04:03:12;504.97;;;84.57;;
31091;SDS011;67728;53.122;12.776;2024-01-30T04:04:44;505.43;;;83.90;;
31091;SDS011;67728;53.122;12.776;2024-01-30T04:06:16;504.97;;;84.63;;
31091;SDS011;67728;53.122;12.776;2024-01-30T04:07:47;510.57;;;84.17;;
31091;SDS011;67728;53.122;12.776;2024-01-30T04:09:20;504.63;;;82.63;;
31091;SDS011;67728;53.122;12.776;2024-01-30T04:10:50;506.17;;;83.13;;
31091;SDS011;67728;53.122;12.776;2024-01-30T04:12:22;505.50;;;83.43;;
31091;SDS011;67728;53.122;12.776;2024-01-30T04:13:53;517.00;;;84.97;;
31091;SDS011;67728;53.122;12.776;2024-01-30T04:15:24;514.57;;;84.50;;
31091;SDS011;67728;53.122;12.776;2024-01-30T04:16:55;518.87;;;84.00;;
31091;SDS011;67728;53.122;12.776;2024-01-30T04:18:26;513.77;;;84.97;;
31091;SDS011;67728;53.122;12.776;2024-01-30T04:19:57;514.17;;;85.93;;
31091;SDS011;67728;53.122;12.776;2024-01-30T04:21:29;506.57;;;84.10;;
31091;SDS011;67728;53.122;12.776;2024-01-30T04:22:59;511.40;;;82.20;;
31091;SDS011;67728;53.122;12.776;2024-01-30T04:24:32;510.43;;;83.00;;
31091;SDS011;67728;53.122;12.776;2024-01-30T04:26:03;514.87;;;86.13;;
31091;SDS011;67728;53.122;12.776;2024-01-30T04:27:35;513.97;;;87.10;;
31091;SDS011;67728;53.122;12.776;2024-01-30T04:29:05;506.13;;;84.73;;
31091;SDS011;67728;53.122;12.776;2024-01-30T04:30:37;506.13;;;83.53;;
31091;SDS011;67728;53.122;12.776;2024-01-30T04:32:07;506.40;;;84.87;;
31091;SDS011;67728;53.122;12.776;2024-01-30T04:33:40;504.83;;;85.30;;
31091;SDS011;67728;53.122;12.776;2024-01-30T04:35:10;503.83;;;81.50;;
31091;SDS011;67728;53.122;12.776;2024-01-30T04:36:43;504.20;;;82.23;;
31091;SDS011;67728;53.122;12.776;2024-01-30T04:38:15;504.03;;;83.17;;
31091;SDS011;67728;53.122;12.776;2024-01-30T04:39:47;507.20;;;85.03;;
31091;SDS011;67728;53.122;12.776;2024-01-30T04:41:19;505.13;;;84.23;;
31091;SDS011;67728;53.122;12.776;2024-01-30T04:42:49;505.83;;;87.83;;
31091;SDS011;67728;53.122;12.776;2024-01-30T04:44:21;504.13;;;83.67;;
31091;SDS011;67728;53.122;12.776;2024-01-30T04:45:51;506.00;;;84.33;;
31091;SDS011;67728;53.122;12.776;2024-01-30T04:47:23;509.13;;;85.57;;
31091;SDS011;67728;53.122;12.776;2024-01-30T04:48:54;505.17;;;84.27;;
31091;SDS011;67728;53.122;12.776;2024-01-30T04:50:25;506.40;;;85.65;;
31091;SDS011;67728;53.122;12.776;2024-01-30T04:51:56;511.50;;;87.33;;
31091;SDS011;67728;53.122;12.776;2024-01-30T04:53:29;506.37;;;85.67;;
31091;SDS011;67728;53.122;12.776;2024-01-30T04:55:02;505.73;;;84.80;;
31091;SDS011;67728;53.122;12.776;2024-01-30T04:56:33;505.03;;;83.63;;
31091;SDS011;67728;53.122;12.776;2024-01-30T04:58:05;506.90;;;84.50;;
31091;SDS011;67728;53.122;12.776;2024-01-30T04:59:37;506.37;;;83.43;;
31091;SDS011;67728;53.122;12.776;2024-01-30T05:01:08;506.13;;;83.50;;
31091;SDS011;67728;53.122;12.776;2024-01-30T05:02:40;506.97;;;81.43;;
31091;SDS011;67728;53.122;12.776;2024-01-30T05:04:10;505.30;;;83.57;;
31091;SDS011;67728;53.122;12.776;2024-01-30T05:05:42;506.13;;;84.97;;
31091;SDS011;67728;53.122;12.776;2024-01-30T05:07:13;515.97;;;85.27;;
31091;SDS011;67728;53.122;12.776;2024-01-30T05:08:44;514.00;;;87.43;;
31091;SDS011;67728;53.122;12.776;2024-01-30T05:10:16;522.13;;;88.37;;
31091;SDS011;67728;53.122;12.776;2024-01-30T05:11:48;516.50;;;87.73;;
31091;SDS011;67728;53.122;12.776;2024-01-30T05:13:18;513.27;;;84.13;;
31091;SDS011;67728;53.122;12.776;2024-01-30T05:14:50;512.90;;;84.50;;
31091;SDS011;67728;53.122;12.776;2024-01-30T05:16:21;517.57;;;85.30;;
31091;SDS011;67728;53.122;12.776;2024-01-30T05:17:52;512.83;;;83.40;;
31091;SDS011;67728;53.122;12.776;2024-01-30T05:19:25;521.10;;;84.67;;
31091;SDS011;67728;53.122;12.776;2024-01-30T05:20:55;518.80;;;87.47;;
31091;SDS011;67728;53.122;12.776;2024-01-30T05:22:27;509.83;;;87.20;;
31091;SDS011;67728;53.122;12.776;2024-01-30T05:23:58;509.53;;;85.83;;
31091;SDS011;67728;53.122;12.776;2024-01-30T05:25:31;507.00;;;85.87;;
31091;SDS011;67728;53.122;12.776;2024-01-30T05:27:01;507.40;;;86.63;;
31091;SDS011;67728;53.122;12.776;2024-01-30T05:28:33;508.13;;;86.70;;
31091;SDS011;67728;53.122;12.776;2024-01-30T05:30:05;508.17;;;84.83;;
31091;SDS011;67728;53.122;12.776;2024-01-30T05:31:37;508.23;;;86.20;;
31091;SDS011;67728;53.122;12.776;2024-01-30T05:33:09;506.13;;;84.97;;
31091;SDS011;67728;53.122;12.776;2024-01-30T05:34:39;507.80;;;86.77;;
31091;SDS011;67728;53.122;12.776;2024-01-30T05:36:11;512.17;;;87.73;;
31091;SDS011;67728;53.122;12.776;2024-01-30T05:37:42;507.43;;;83.13;;
31091;SDS011;67728;53.122;12.776;2024-01-30T05:39:14;506.93;;;84.40;;
31091;SDS011;67728;53.122;12.776;2024-01-30T05:40:46;537.43;;;86.80;;
31091;SDS011;67728;53.122;12.776;2024-01-30T05:42:17;565.93;;;89.23;;
31091;SDS011;67728;53.122;12.776;2024-01-30T05:43:48;515.17;;;86.20;;
31091;SDS011;67728;53.122;12.776;2024-01-30T05:45:20;513.53;;;83.20;;
31091;SDS011;67728;53.122;12.776;2024-01-30T05:46:50;513.47;;;85.90;;
31091;SDS011;67728;53.122;12.776;2024-01-30T05:48:22;514.93;;;87.17;;
31091;SDS011;67728;53.122;12.776;2024-01-30T05:49:53;517.43;;;87.70;;
31091;SDS011;67728;53.122;12.776;2024-01-30T05:51:24;507.77;;;86.10;;
31091;SDS011;67728;53.122;12.776;2024-01-30T05:52:56;513.90;;;85.43;;
31091;SDS011;67728;53.122;12.776;2024-01-30T05:54:26;550.17;;;91.60;;
31091;SDS011;67728;53.122;12.776;2024-01-30T05:55:59;513.13;;;82.47;;
31091;SDS011;67728;53.122;12.776;2024-01-30T05:57:30;514.67;;;86.37;;
31091;SDS011;67728;53.122;12.776;2024-01-30T05:59:02;508.13;;;86.63;;
31091;SDS011;67728;53.122;12.776;2024-01-30T06:00:32;506.27;;;88.27;;
31091;SDS011;67728;53.122;12.776;2024-01-30T06:02:04;516.17;;;85.37;;
31091;SDS011;67728;53.122;12.776;2024-01-30T06:03:35;608.57;;;91.97;;
31091;SDS011;67728;53.122;12.776;2024-01-30T06:05:07;519.63;;;89.40;;
31091;SDS011;67728;53.122;12.776;2024-01-30T06:06:39;514.67;;;87.53;;
31091;SDS011;67728;53.122;12.776;2024-01-30T06:08:10;524.70;;;86.90;;
31091;SDS011;67728;53.122;12.776;2024-01-30T06:09:42;522.23;;;86.70;;
31091;SDS011;67728;53.122;12.776;2024-01-30T06:11:14;524.40;;;86.17;;
31091;SDS011;67728;53.122;12.776;2024-01-30T06:12:45;548.77;;;89.97;;
31091;SDS011;67728;53.122;12.776;2024-01-30T06:14:18;513.37;;;84.77;;
31091;SDS011;67728;53.122;12.776;2024-01-30T06:15:49;513.27;;;84.67;;
31091;SDS011;67728;53.122;12.776;2024-01-30T06:17:20;512.73;;;87.47;;
31091;SDS011;67728;53.122;12.776;2024-01-30T06:18:52;512.27;;;85.63;;
31091;SDS011;67728;53.122;12.776;2024-01-30T06:20:22;523.40;;;84.60;;
31091;SDS011;67728;53.122;12.776;2024-01-30T06:21:54;514.37;;;84.03;;
31091;SDS011;67728;53.122;12.776;2024-01-30T06:23:27;512.87;;;85.43;;
31091;SDS011;67728;53.122;12.776;2024-01-30T06:24:57;514.43;;;87.80;;
31091;SDS011;67728;53.122;12.776;2024-01-30T06:26:30;516.40;;;87.93;;
31091;SDS011;67728;53.122;12.776;2024-01-30T06:28:01;507.77;;;86.43;;
31091;SDS011;67728;53.122;12.776;2024-01-30T06:29:33;512.23;;;86.43;;
31091;SDS011;67728;53.122;12.776;2024-01-30T06:31:04;513.20;;;87.43;;
31091;SDS011;67728;53.122;12.776;2024-01-30T06:32:35;513.50;;;88.20;;
31091;SDS011;67728;53.122;12.776;2024-01-30T06:34:06;508.57;;;87.33;;
31091;SDS011;67728;53.122;12.776;2024-01-30T06:35:37;505.67;;;83.20;;
31091;SDS011;67728;53.122;12.776;2024-01-30T06:37:10;504.57;;;83.97;;
31091;SDS011;67728;53.122;12.776;2024-01-30T06:38:41;505.10;;;83.23;;
31091;SDS011;67728;53.122;12.776;2024-01-30T06:40:13;529.17;;;88.80;;
31091;SDS011;67728;53.122;12.776;2024-01-30T06:41:45;596.50;;;89.60;;
31091;SDS011;67728;53.122;12.776;2024-01-30T06:43:17;525.03;;;87.80;;
31091;SDS011;67728;53.122;12.776;2024-01-30T06:44:48;513.90;;;85.83;;
31091;SDS011;67728;53.122;12.776;2024-01-30T06:46:19;508.57;;;82.87;;
31091;SDS011;67728;53.122;12.776;2024-01-30T06:47:50;533.43;;;86.67;;
31091;SDS011;67728;53.122;12.776;2024-01-30T06:49:22;555.63;;;91.70;;
31091;SDS011;67728;53.122;12.776;2024-01-30T06:50:53;543.80;;;88.50;;
31091;SDS011;67728;53.122;12.776;2024-01-30T06:52:25;536.17;;;89.50;;
31091;SDS011;67728;53.122;12.776;2024-01-30T06:53:55;536.20;;;87.20;;
31091;SDS011;67728;53.122;12.776;2024-01-30T06:55:27;560.33;;;90.60;;
31091;SDS011;67728;53.122;12.776;2024-01-30T06:56:59;568.80;;;91.50;;
31091;SDS011;67728;53.122;12.776;2024-01-30T06:58:30;577.83;;;90.40;;
31091;SDS011;67728;53.122;12.776;2024-01-30T07:00:02;518.07;;;87.53;;
31091;SDS011;67728;53.122;12.776;2024-01-30T07:01:34;516.40;;;88.90;;
31091;SDS011;67728;53.122;12.776;2024-01-30T07:03:05;513.97;;;86.23;;
31091;SDS011;67728;53.122;12.776;2024-01-30T07:04:37;537.27;;;91.77;;
31091;SDS011;67728;53.122;12.776;2024-01-30T07:06:07;515.40;;;86.97;;
31091;SDS011;67728;53.122;12.776;2024-01-30T07:07:39;522.07;;;89.43;;
31091;SDS011;67728;53.122;12.776;2024-01-30T07:09:10;519.50;;;90.83;;
31091;SDS011;67728;53.122;12.776;2024-01-30T07:10:41;510.43;;;88.40;;
31091;SDS011;67728;53.122;12.776;2024-01-30T07:12:13;522.00;;;91.27;;
31091;SDS011;67728;53.122;12.776;2024-01-30T07:13:45;517.10;;;90.43;;
31091;SDS011;67728;53.122;12.776;2024-01-30T07:15:16;550.53;;;93.13;;
31091;SDS011;67728;53.122;12.776;2024-01-30T07:16:50;534.17;;;92.50;;
31091;SDS011;67728;53.122;12.776;2024-01-30T07:18:21;533.70;;;91.83;;
31091;SDS011;67728;53.122;12.776;2024-01-30T07:19:52;614.27;;;97.10;;
31091;SDS011;67728;53.122;12.776;2024-01-30T07:21:23;578.67;;;91.90;;
31091;SDS011;67728;53.122;12.776;2024-01-30T07:22:58;576.23;;;92.50;;
31091;SDS011;67728;53.122;12.776;2024-01-30T07:24:29;575.20;;;92.47;;
31091;SDS011;67728;53.122;12.776;2024-01-30T07:26:00;568.70;;;91.27;;
31091;SDS011;67728;53.122;12.776;2024-01-30T07:27:33;569.40;;;93.67;;
31091;SDS011;67728;53.122;12.776;2024-01-30T07:29:04;575.00;;;92.20;;
31091;SDS011;67728;53.122;12.776;2024-01-30T07:30:35;579.97;;;92.50;;
31091;SDS011;67728;53.122;12.776;2024-01-30T07:32:06;573.10;;;92.90;;
31091;SDS011;67728;53.122;12.776;2024-01-30T07:33:37;550.47;;;92.07;;
31091;SDS011;67728;53.122;12.776;2024-01-30T07:35:09;534.63;;;88.00;;
31091;SDS011;67728;53.122;12.776;2024-01-30T07:36:41;533.10;;;91.57;;
31091;SDS011;67728;53.122;12.776;2024-01-30T07:38:12;537.80;;;88.73;;
31091;SDS011;67728;53.122;12.776;2024-01-30T07:39:43;542.07;;;94.23;;
31091;SDS011;67728;53.122;12.776;2024-01-30T07:41:15;531.33;;;92.00;;
31091;SDS011;67728;53.122;12.776;2024-01-30T07:42:48;560.10;;;93.73;;
31091;SDS011;67728;53.122;12.776;2024-01-30T07:44:19;542.70;;;92.37;;
31091;SDS011;67728;53.122;12.776;2024-01-30T07:45:51;527.40;;;91.33;;
31091;SDS011;67728;53.122;12.776;2024-01-30T07:47:22;568.20;;;95.43;;
31091;SDS011;67728;53.122;12.776;2024-01-30T07:48:53;573.87;;;93.67;;
31091;SDS011;67728;53.122;12.776;2024-01-30T07:50:25;605.60;;;96.67;;
31091;SDS011;67728;53.122;12.776;2024-01-30T07:51:56;559.03;;;95.33;;
31091;SDS011;67728;53.122;12.776;2024-01-30T07:53:28;573.13;;;95.63;;
31091;SDS011;67728;53.122;12.776;2024-01-30T07:54:59;578.57;;;96.87;;
31091;SDS011;67728;53.122;12.776;2024-01-30T07:56:30;580.10;;;97.37;;
31091;SDS011;67728;53.122;12.776;2024-01-30T07:58:03;585.57;;;95.07;;
31091;SDS011;67728;53.122;12.776;2024-01-30T07:59:34;560.00;;;96.95;;
31091;SDS011;67728;53.122;12.776;2024-01-30T08:01:06;542.23;;;95.40;;
31091;SDS011;67728;53.122;12.776;2024-01-30T08:02:37;554.17;;;96.72;;
31091;SDS011;67728;53.122;12.776;2024-01-30T08:04:08;548.73;;;94.53;;
31091;SDS011;67728;53.122;12.776;2024-01-30T08:05:39;542.90;;;93.40;;
31091;SDS011;67728;53.122;12.776;2024-01-30T08:07:10;554.13;;;98.10;;
31091;SDS011;67728;53.122;12.776;2024-01-30T08:08:41;552.10;;;94.40;;
31091;SDS011;67728;53.122;12.776;2024-01-30T08:10:12;557.70;;;96.63;;
31091;SDS011;67728;53.122;12.776;2024-01-30T08:11:43;556.58;;;96.10;;
31091;SDS011;67728;53.122;12.776;2024-01-30T08:13:16;555.58;;;99.55;;
31091;SDS011;67728;53.122;12.776;2024-01-30T08:14:47;546.97;;;96.27;;
31091;SDS011;67728;53.122;12.776;2024-01-30T08:16:18;546.13;;;97.60;;
31091;SDS011;67728;53.122;12.776;2024-01-30T08:17:49;534.53;;;95.53;;
31091;SDS011;67728;53.122;12.776;2024-01-30T08:19:25;529.17;;;95.60;;
31091;SDS011;67728;53.122;12.776;2024-01-30T08:20:56;534.77;;;97.30;;
31091;SDS011;67728;53.122;12.776;2024-01-30T08:22:27;549.83;;;95.00;;
31091;SDS011;67728;53.122;12.776;2024-01-30T08:23:58;550.27;;;99.87;;
31091;SDS011;67728;53.122;12.776;2024-01-30T08:25:30;556.83;;;99.37;;
31091;SDS011;67728;53.122;12.776;2024-01-30T08:27:01;553.00;;;96.33;;
31091;SDS011;67728;53.122;12.776;2024-01-30T08:28:36;567.72;;;99.75;;
31091;SDS011;67728;53.122;12.776;2024-01-30T08:30:07;561.80;;;100.55;;
31091;SDS011;67728;53.122;12.776;2024-01-30T08:31:39;565.47;;;102.43;;
31091;SDS011;67728;53.122;12.776;2024-01-30T08:33:11;566.00;;;102.93;;
31091;SDS011;67728;53.122;12.776;2024-01-30T08:34:41;552.88;;;102.28;;
31091;SDS011;67728;53.122;12.776;2024-01-30T08:36:13;558.40;;;105.67;;
31091;SDS011;67728;53.122;12.776;2024-01-30T08:37:44;576.20;;;101.25;;
31091;SDS011;67728;53.122;12.776;2024-01-30T08:39:15;573.40;;;103.10;;